Flight Track Log - Related Links

Times and Time Zones

All times are in EDT time to prevent confusion due to time zone crossing. See the EJA122 flight status page for this flight to view local times or setup timezone preferences in your user account.

Time Position Orientation Groundspeed Altitude Reporting Facility
EDT Latitude Longitude Course Direction KTS MPH feet Rate Location/Type
Fri 01:46:11 PM 46.8453 -92.3719 271° West 213 245 6,900  Level Minneapolis Center
Fri 01:47:13 PM 46.8644 -92.4692 286° West 233 268 9,500 2,419 Climbing Minneapolis Center
Fri 01:48:15 PM 46.8664 -92.5794 272° West 260 299 11,900 2,074 Climbing Minneapolis Center
Fri 01:49:29 PM 46.8644 -92.6911 269° West 271 312 14,200 1,809 Climbing Minneapolis Center
Fri 01:50:00 PM 46.8000 -92.8695 270° West  Level FlightAware Approximate
Fri 01:50:31 PM 46.8639 -92.8261 270° West 275 316 16,000  Level Minneapolis Center
Fri 01:51:33 PM 46.8625 -92.9411 269° West 281 323 17,700 1,742 Climbing Minneapolis Center
Fri 01:52:35 PM 46.8606 -93.0806 269° West 285 328 19,600 1,680 Climbing Minneapolis Center
Fri 01:53:38 PM 46.8589 -93.1997 269° West 289 333 21,200 1,584 Climbing Minneapolis Center
Fri 01:54:40 PM 46.8572 -93.3206 269° West 296 341 22,900 1,548 Climbing Minneapolis Center
Fri 01:55:42 PM 46.8553 -93.4444 269° West 302 348 24,400 1,452 Climbing Minneapolis Center
Fri 01:56:44 PM 46.8536 -93.5711 269° West 309 356 25,900 1,355 Climbing Minneapolis Center
Fri 01:57:46 PM 46.8511 -93.6997 268° West 314 361 27,200 1,403 Climbing Minneapolis Center
Fri 01:58:48 PM 46.8492 -93.8547 269° West 318 366 28,800 1,500 Climbing Minneapolis Center
Fri 01:59:50 PM 46.8467 -93.9878 268° West 325 374 30,300 1,500 Climbing Minneapolis Center
Fri 02:00:52 PM 46.8439 -94.1136 268° West 314 361 31,900 1,113 Climbing Minneapolis Center
Fri 02:01:54 PM 46.8411 -94.2367 268° West 306 352 32,600 629 Climbing Minneapolis Center
Fri 02:02:56 PM 46.8383 -94.3647 268° West 314 361 33,200 532 Climbing Minneapolis Center
Fri 02:03:58 PM 46.8347 -94.4939 268° West 319 367 33,700 387 Climbing Minneapolis Center
Fri 02:05:00 PM 46.8317 -94.6289 268° West 330 380 34,000 144 Climbing Minneapolis Center
Fri 02:06:03 PM 46.8281 -94.7953 268° West 341 392 34,000  Level Minneapolis Center
Fri 02:07:05 PM 46.8231 -94.9383 267° West 353 406 34,000  Level Minneapolis Center
Fri 02:08:07 PM 46.8186 -95.0836 267° West 360 414 34,000  Level Minneapolis Center
Fri 02:09:09 PM 46.8150 -95.2314 268° West 365 420 34,000  Level Minneapolis Center
Fri 02:10:11 PM 46.8100 -95.3783 267° West 365 420 34,000  Level Minneapolis Center
Fri 02:11:13 PM 46.8053 -95.5567 268° West 369 425 34,000  Level Minneapolis Center
Fri 02:12:15 PM 46.8000 -95.7061 267° West 369 425 34,000  Level Minneapolis Center
Fri 02:13:17 PM 46.7942 -95.8525 267° West 370 426 34,000  Level Minneapolis Center
Fri 02:14:19 PM 46.7886 -96.0019 267° West 370 426 34,000 97 Level Minneapolis Center
Fri 02:15:21 PM 46.7831 -96.1519 267° West 371 427 34,200 339 Climbing Minneapolis Center
Fri 02:16:23 PM 46.7775 -96.2975 267° West 363 418 34,700 480 Climbing Minneapolis Center
Fri 02:17:26 PM 46.7703 -96.4717 267° West 359 413 35,200 480 Climbing Minneapolis Center
Fri 02:18:28 PM 46.7639 -96.6144 266° West 356 410 35,700 484 Climbing Minneapolis Center
Fri 02:19:30 PM 46.7575 -96.7567 266° West 353 406 36,200 435 Climbing Minneapolis Center
Fri 02:20:32 PM 46.7553 -96.8967 269° West 349 402 36,600 435 Climbing Minneapolis Center
Fri 02:21:34 PM 46.7619 -97.0389 274° West 351 404 37,100 435 Climbing Minneapolis Center
Fri 02:22:36 PM 46.7678 -97.1781 274° West 347 399 37,500 435 Climbing Minneapolis Center
Fri 02:23:38 PM 46.7742 -97.3447 273° West 344 396 38,000 242 Climbing Minneapolis Center
Fri 02:24:40 PM 46.7803 -97.4806 274° West 338 389 38,000  Level Minneapolis Center
Fri 02:25:42 PM 46.7847 -97.6156 273° West 333 383 38,000  Level Minneapolis Center
Fri 02:26:44 PM 46.7897 -97.7500 273° West 332 382 38,000  Level Minneapolis Center
Fri 02:27:46 PM 46.7944 -97.8844 273° West 333 383 38,000  Level Minneapolis Center
Fri 02:28:48 PM 46.7997 -98.0200 273° West 333 383 38,000  Level Minneapolis Center
Fri 02:29:50 PM 46.8042 -98.1819 272° West 333 383 38,000  Level Minneapolis Center
Fri 02:30:52 PM 46.8094 -98.3197 273° West 338 389 38,000  Level Minneapolis Center
Fri 02:31:54 PM 46.8144 -98.4567 273° West 339 390 38,000  Level Minneapolis Center
Fri 02:32:56 PM 46.8183 -98.5931 272° West 337 388 38,000  Level Minneapolis Center
Fri 02:33:59 PM 46.8225 -98.7303 273° West 338 389 38,000  Level Minneapolis Center
Fri 02:35:01 PM 46.8258 -98.8672 272° West 338 389 38,000  Level Minneapolis Center
Fri 02:36:03 PM 46.8283 -99.0050 272° West 339 390 38,000  Level Minneapolis Center
Fri 02:37:05 PM 46.8331 -99.1697 272° West 342 394 38,000  Level Minneapolis Center
Fri 02:38:07 PM 46.8364 -99.3081 272° West 342 394 38,000  Level Minneapolis Center
Fri 02:39:09 PM 46.8394 -99.4458 272° West 341 392 38,000  Level Minneapolis Center
Fri 02:40:11 PM 46.8419 -99.5833 272° West 340 391 38,000  Level Minneapolis Center
Fri 02:41:53 PM 46.8486 -99.8200 272° West 341 392 38,000  Level Salt Lake Center
Fri 02:42:56 PM 46.8522 -99.9578 272° West 341 392 38,000  Level Salt Lake Center
Fri 02:43:58 PM 46.8547 -100.0961 272° West 342 394 38,000  Level Salt Lake Center
Fri 02:45:00 PM 46.8561 -100.2653 271° West 344 396 38,000  Level Salt Lake Center
Fri 02:46:23 PM 46.8553 -100.4442 270° West 345 397 38,000 124 Level Minneapolis Center
Fri 02:47:25 PM 46.8569 -100.5997 271° West 343 395 38,300 242 Climbing Minneapolis Center
Fri 02:48:27 PM 46.8583 -100.7347 271° West 337 388 38,500 240 Climbing Minneapolis Center
Fri 02:49:30 PM 46.8597 -100.8700 271° West 335 386 38,800 240 Climbing Minneapolis Center
Fri 02:50:32 PM 46.8597 -101.0072 270° West 336 387 39,000 242 Climbing Minneapolis Center
Fri 02:51:34 PM 46.8589 -101.1439 270° West 338 389 39,300 290 Climbing Minneapolis Center
Fri 02:52:36 PM 46.8586 -101.3011 270° West 334 384 39,600 290 Climbing Minneapolis Center
Fri 02:53:38 PM 46.8597 -101.4300 271° West 328 377 39,900 194 Climbing Minneapolis Center
Fri 02:54:40 PM 46.8600 -101.5569 270° West 323 372 40,000 48 Climbing Minneapolis Center
Fri 02:55:42 PM 46.8603 -101.6836 270° West 318 366 40,000  Level Minneapolis Center
Fri 02:56:44 PM 46.8650 -101.8111 273° West 317 365 40,000  Level Minneapolis Center
Fri 02:57:46 PM 46.8683 -101.9433 272° West 319 367 40,000  Level Minneapolis Center
Fri 02:58:48 PM 46.8683 -102.1067 270° West 327 376 40,000  Level Minneapolis Center
Fri 02:59:50 PM 46.8664 -102.2489 269° West 336 387 40,000  Level Minneapolis Center
Fri 03:00:52 PM 46.8639 -102.3625 268° West 343 395 40,000  Level Minneapolis Center
Fri 03:01:54 PM 46.8644 -102.5325 270° West 349 402 40,000  Level Minneapolis Center
Fri 03:02:56 PM 46.8636 -102.6758 270° West 353 406 40,000  Level Minneapolis Center
Fri 03:03:59 PM 46.8667 -102.8222 272° West 358 412 40,000  Level Minneapolis Center
Fri 03:05:01 PM 46.8842 -102.9653 280° West 361 415 40,000  Level Minneapolis Center
Fri 03:06:03 PM 46.9017 -103.1394 278° West 360 414 40,000  Level Minneapolis Center
Fri 03:07:05 PM 46.9150 -103.2867 278° West 363 418 40,000  Level Minneapolis Center
Fri 03:08:07 PM 46.9303 -103.4283 279° West 357 411 40,000  Level Minneapolis Center
Fri 03:09:08 PM 46.9422 -103.5422 279° West 356 410 40,000  Level Minneapolis Center
Fri 03:09:49 PM 46.9508 -103.6569 276° West 356 410 40,000  Level Salt Lake Center
Fri 03:10:51 PM 46.9675 -103.8269 278° West 353 406 40,000  Level Salt Lake Center
Fri 03:11:53 PM 46.9817 -103.9681 278° West 352 405 40,000  Level Salt Lake Center
Fri 03:12:55 PM 46.9978 -104.1089 280° West 351 404 40,000  Level Salt Lake Center
Fri 03:13:57 PM 47.0144 -104.2475 280° West 348 400 40,000  Level Salt Lake Center
Fri 03:14:59 PM 47.0303 -104.3839 280° West 345 397 40,000  Level Salt Lake Center
Fri 03:16:01 PM 47.0456 -104.5231 279° West 344 396 40,000  Level Salt Lake Center
Fri 03:17:03 PM 47.0625 -104.6644 280° West 349 402 40,000  Level Salt Lake Center
Fri 03:18:05 PM 47.0819 -104.8333 280° West 351 404 40,000  Level Salt Lake Center
Fri 03:19:07 PM 47.0986 -104.9736 280° West 350 403 40,000  Level Salt Lake Center
Fri 03:20:09 PM 47.1136 -105.1142 279° West 349 402 40,000  Level Salt Lake Center
Fri 03:21:11 PM 47.1283 -105.2550 279° West 350 403 40,000  Level Salt Lake Center
Fri 03:22:14 PM 47.1447 -105.3969 280° West 352 405 40,000  Level Salt Lake Center
Fri 03:23:16 PM 47.1597 -105.5392 279° West 352 405 40,000  Level Salt Lake Center
Fri 03:24:18 PM 47.1778 -105.7097 279° West 352 405 40,000  Level Salt Lake Center
Fri 03:25:20 PM 47.1914 -105.8514 278° West 351 404 40,000  Level Salt Lake Center
Fri 03:26:22 PM 47.2069 -105.9939 279° West 353 406 40,000  Level Salt Lake Center
Fri 03:27:24 PM 47.2211 -106.1383 278° West 355 409 40,000  Level Salt Lake Center
Fri 03:28:26 PM 47.2369 -106.2906 279° West 358 412 40,000  Level Salt Lake Center
Fri 03:29:28 PM 47.2511 -106.4356 278° West 359 413 40,000  Level Salt Lake Center
Fri 03:30:30 PM 47.2683 -106.6119 278° West 363 418 40,000  Level Salt Lake Center
Fri 03:31:32 PM 47.2822 -106.7581 278° West 363 418 40,000  Level Salt Lake Center
Fri 03:32:34 PM 47.2953 -106.9025 278° West 359 413 40,000  Level Salt Lake Center
Fri 03:33:36 PM 47.3083 -107.0497 278° West 362 417 40,000  Level Salt Lake Center
Fri 03:34:38 PM 47.3217 -107.1981 278° West 365 420 40,000  Level Salt Lake Center
Fri 03:35:40 PM 47.3350 -107.3481 278° West 369 425 40,000  Level Salt Lake Center
Fri 03:36:42 PM 47.3506 -107.5283 277° West 371 427 40,000  Level Salt Lake Center
Fri 03:37:44 PM 47.3636 -107.6800 277° West 373 429 40,000  Level Salt Lake Center
Fri 03:38:46 PM 47.3761 -107.8311 277° West 373 429 40,000  Level Salt Lake Center
Fri 03:39:48 PM 47.3897 -107.9831 278° West 374 430 40,000  Level Salt Lake Center
Fri 03:40:50 PM 47.4022 -108.1333 277° West 372 428 40,000  Level Salt Lake Center
Fri 03:41:52 PM 47.4139 -108.2842 277° West 371 427 40,000  Level Salt Lake Center
Fri 03:42:54 PM 47.4264 -108.4656 276° West 372 428 40,000  Level Salt Lake Center
Fri 03:43:56 PM 47.4372 -108.6169 276° West 371 427 40,000  Level Salt Lake Center
Fri 03:44:59 PM 47.4528 -108.7686 279° West 373 429 40,000  Level Salt Lake Center
Fri 03:46:01 PM 47.4642 -108.9217 276° West 374 430 40,000  Level Salt Lake Center
Fri 03:47:03 PM 47.4750 -109.0750 276° West 375 432 40,000  Level Salt Lake Center
Fri 03:48:05 PM 47.4844 -109.2275 275° West 375 432 40,000  Level Salt Lake Center
Fri 03:49:07 PM 47.4967 -109.4114 276° West 376 433 40,000  Level Salt Lake Center
Fri 03:50:09 PM 47.5086 -109.5642 277° West 375 432 40,000  Level Salt Lake Center
Fri 03:51:11 PM 47.5200 -109.7192 276° West 378 435 40,000  Level Salt Lake Center
Fri 03:52:13 PM 47.5286 -109.8747 275° West 381 438 40,000  Level Salt Lake Center
Fri 03:53:15 PM 47.5375 -110.0283 275° West 377 434 40,000  Level Salt Lake Center
Fri 03:54:17 PM 47.5481 -110.1844 276° West 380 437 40,000  Level Salt Lake Center
Fri 03:55:19 PM 47.5600 -110.3722 275° West 383 441 40,000  Level Salt Lake Center
Fri 03:56:21 PM 47.5692 -110.5272 275° West 381 438 40,000  Level Salt Lake Center
Fri 03:57:23 PM 47.5786 -110.6842 275° West 383 441 40,000  Level Salt Lake Center
Fri 03:58:25 PM 47.5881 -110.8411 275° West 384 442 40,000  Level Salt Lake Center
Fri 03:59:27 PM 47.5972 -110.9978 275° West 383 441 40,000  Level Salt Lake Center
Fri 04:00:29 PM 47.6069 -111.1781 275° West 384 442 40,000  Level Salt Lake Center
Fri 04:01:31 PM 47.6142 -111.3372 274° West 387 445 40,000  Level Salt Lake Center
Fri 04:02:33 PM 47.6222 -111.4894 275° West 388 447 40,000  Level Salt Lake Center
Fri 04:03:35 PM 47.6308 -111.6483 275° West 389 448 40,000  Level Salt Lake Center
Fri 04:04:37 PM 47.6400 -111.8383 274° West 386 444 40,000  Level Salt Lake Center
Fri 04:05:39 PM 47.6486 -111.9972 275° West 387 445 40,000  Level Salt Lake Center
Fri 04:06:41 PM 47.6558 -112.1567 274° West 389 448 40,000  Level Salt Lake Center
Fri 04:07:44 PM 47.6617 -112.3150 273° West 387 445 40,000  Level Salt Lake Center
Fri 04:08:46 PM 47.6692 -112.4761 274° West 391 450 40,000  Level Salt Lake Center
Fri 04:09:48 PM 47.6761 -112.6353 274° West 389 448 40,000 -532 Level Salt Lake Center
Fri 04:10:50 PM 47.6831 -112.8281 273° West 391 450 38,900 -1,113 Descending Salt Lake Center
Fri 04:11:52 PM 47.6914 -112.9953 274° West 389 448 37,700 -1,065 Descending Salt Lake Center
Fri 04:12:54 PM 47.6986 -113.1475 274° West 377 434 36,700 -968 Descending Salt Lake Center
Fri 04:13:56 PM 47.7031 -113.2992 273° West 370 426 35,700 -1,073 Descending Salt Lake Center
Fri 04:14:57 PM 47.7081 -113.4611 273° West 389 448 34,500 -829 Descending Salt Lake Center
Fri 04:15:59 PM 47.7139 -113.6169 273° West 381 438 34,000 -242 Descending Salt Lake Center
Fri 04:17:01 PM 47.7186 -113.7669 273° West 367 422 34,000  Level Salt Lake Center
Fri 04:18:03 PM 47.7228 -113.9233 272° West 375 432 34,000  Level Salt Lake Center
Fri 04:19:05 PM 47.7283 -114.1156 273° West 387 445 34,000  Level Salt Lake Center
Fri 04:20:07 PM 47.7319 -114.2756 272° West 386 444 34,000  Level Salt Lake Center
Fri 04:21:09 PM 47.7367 -114.4406 272° West 393 452 34,000 -194 Level Salt Lake Center
Fri 04:22:11 PM 47.7411 -114.6036 272° West 392 451 33,600 -1,161 Descending Salt Lake Center
Fri 04:23:13 PM 47.7453 -114.7650 272° West 390 449 31,600 -1,839 Descending Salt Lake Center
Fri 04:24:15 PM 47.7497 -114.9219 272° West 382 440 29,800 -1,258 Descending Salt Lake Center
Fri 04:25:17 PM 47.7533 -115.0778 272° West 378 435 29,000 -1,113 Descending Salt Lake Center
Fri 04:26:19 PM 47.7564 -115.2406 272° West 388 447 27,500 -2,129 Descending Salt Lake Center
Fri 04:27:21 PM 47.7597 -115.4283 272° West 381 438 24,600 -2,565 Descending Salt Lake Center
Fri 04:28:23 PM 47.7617 -115.5867 271° West 381 438 22,200 -2,371 Descending Salt Lake Center
Fri 04:29:25 PM 47.7639 -115.7492 271° West 391 450 19,700 -2,293 Descending Salt Lake Center
Fri 04:30:26 PM 47.7667 -115.8969 272° West 368 423 17,500 -2,195 Descending Salt Lake Center
Fri 04:31:28 PM 47.7669 -116.0511 270° West 370 426 15,200 -2,323 Descending Salt Lake Center
Fri 04:32:30 PM 47.7689 -116.2244 271° West 378 435 12,700 -2,229 Descending Salt Lake Center
Fri 04:33:48 PM 47.7719 -116.4064 271° West 366 421 10,000 -1,757 Descending Seattle Center
Fri 04:34:50 PM 47.7733 -116.5336 271° West 307 353 8,600 -1,512 Descending Seattle Center
Fri 04:35:51 PM 47.7739 -116.6492 270° West 280 322 6,900 -1,672 Descending Seattle Center
Fri 04:37:00 PM 47.7667 -116.8125 270° West  Level FlightAware Approximate
Fri 04:44:00 PM 47.7667 -116.8167 270° West  Level FlightAware Approximate
Fri 04:45:00 PM 47.7743 -116.8196 270° West  Level Estimated
Fri 04:46:00 PM 47.7743 -116.8196 270° West  Level Estimated
Fri 04:47:00 PM 47.7743 -116.8196 270° West  Level Estimated

Login

Don't have an account? Register now (free) for customized features, flight alerts, and more!